Cheyenne — 9HAK5 — position and weather

sailwx.info

Track history (hours):
 
Tides and Currents Weather Stations Pressure Air Temp Water Temp Dewpoint Dewpoint Depression Visibility Wind Speed Wind Dir Waves Ship Positions

Cheyenne

Last reported at 2017-Aug-08 04:03 UTC. Time now 2017-Aug-23 21:29 UTC.
Position N 45°30' E 036°45'.
Warning: this ship's position is 15 days out of date.

Length 133 m; draft 2.8 m.

Type: Ship. MMSI: 249607000.

Date/timePositionNaut miles runAvg speedWind from/ knotsBaromVisibWave heightAir tempDewpointWater temp
2017-Aug-08 04:03N 45°30' E 036°45'0 8.1
2017-Aug-08 04:00N 45°30' E 036°44'4 7.8
2017-Aug-08 03:30N 45°26' E 036°42'4 8.2
2017-Aug-08 03:00N 45°22' E 036°40'3 6.5
2017-Aug-08 02:30N 45°20' E 036°37'4 7.2
2017-Aug-08 02:00N 45°19' E 036°32'3 6.7
2017-Aug-08 01:30N 45°17' E 036°29'2 4.4
2017-Aug-08 01:00N 45°14' E 036°30'1 0.3
2017-Aug-07 23:05N 45°14' E 036°30'0 0.0
2017-Aug-07 20:59N 45°14' E 036°30'0 0.0
2017-Aug-07 19:41N 45°14' E 036°30'0 0.0
2017-Aug-07 19:29N 45°14' E 036°30'0 0.0
2017-Aug-07 18:59N 45°14' E 036°30'0 0.0
2017-Aug-07 18:02N 45°14' E 036°30'0 0.1
2017-Aug-07 17:56N 45°14' E 036°30'0 0.0
2017-Aug-07 17:20N 45°14' E 036°30'0 0.0
2017-Aug-07 16:50N 45°14' E 036°30'0 0.0
2017-Aug-07 16:23N 45°14' E 036°30'0 0.0
2017-Aug-07 15:44N 45°14' E 036°30'0 0.0
2017-Aug-07 15:26N 45°14' E 036°30'0 0.0
2017-Aug-07 14:59N 45°14' E 036°30'0 0.0
2017-Aug-07 14:20N 45°14' E 036°30'0 0.1
2017-Aug-07 13:56N 45°14' E 036°30'0 0.2
2017-Aug-07 13:29N 45°14' E 036°30'2 4.3
2017-Aug-07 13:00N 45°12' E 036°29'4 7.8
2017-Aug-07 12:30N 45°08' E 036°30'23 7.9
2017-Aug-07 09:34N 44°45' E 036°25'1 8.6
2017-Aug-07 09:29N 44°45' E 036°25'397 7.9
2017-Aug-05 07:17N 40°59' E 028°60'2 5.4
2017-Aug-05 07:00N 40°57' E 028°60'3 5.3
2017-Aug-05 06:30N 40°55' E 028°60'3 6.0
2017-Aug-05 05:59N 40°52' E 029°02'3 6.9
2017-Aug-05 05:30N 40°49' E 029°04'2 3.2
2017-Aug-05 04:52N 40°48' E 029°06'0 0.5
2017-Aug-05 04:29N 40°48' E 029°05'0 0.4
2017-Aug-05 03:55N 40°47' E 029°05'0 0.5
2017-Aug-05 03:25N 40°47' E 029°05'0 0.5
2017-Aug-05 03:00N 40°47' E 029°05'0 0.6
2017-Aug-05 02:30N 40°47' E 029°04'0 0.6
2017-Aug-05 02:00N 40°47' E 029°04'0 0.6
2017-Aug-05 01:17N 40°47' E 029°04'0 0.5
2017-Aug-05 00:20N 40°46' E 029°03'0 0.5
2017-Aug-05 00:00N 40°46' E 029°03'0 0.5
2017-Aug-04 23:29N 40°46' E 029°03'0 0.4
2017-Aug-04 22:56N 40°46' E 029°03'0 0.3
2017-Aug-04 22:23N 40°46' E 029°03'0 0.3
2017-Aug-04 21:52N 40°46' E 029°02'0 0.3
2017-Aug-04 21:26N 40°46' E 029°02'0 0.3
2017-Aug-04 20:59N 40°45' E 029°02'1 0.3
2017-Aug-04 19:09N 40°45' E 029°01'0 0.3
2017-Aug-04 18:50N 40°45' E 029°01'0 0.9
2017-Aug-04 18:25N 40°46' E 029°02'0 0.3
2017-Aug-04 18:00N 40°45' E 029°02'1 1.2
2017-Aug-04 17:30N 40°45' E 029°02'3 5.0
2017-Aug-04 16:59N 40°42' E 029°03'0 0.1
2017-Aug-04 16:30N 40°42' E 029°03'0 0.3
2017-Aug-04 16:00N 40°42' E 029°03'0 0.3
2017-Aug-04 15:30N 40°43' E 029°03'0 0.3
2017-Aug-04 14:59N 40°43' E 029°03'0 0.5
2017-Aug-04 14:00N 40°43' E 029°03'0 0.5
2017-Aug-04 13:30N 40°43' E 029°03'0 0.6
2017-Aug-04 13:00N 40°44' E 029°03'0 0.7
2017-Aug-04 12:30N 40°44' E 029°02'0 0.7
2017-Aug-04 12:00N 40°44' E 029°02'0 0.7
2017-Aug-04 11:30N 40°44' E 029°01'0 0.7
2017-Aug-04 11:00N 40°44' E 029°01'0 0.7
2017-Aug-04 10:29N 40°44' E 029°00'1 0.6
2017-Aug-04 09:16N 40°44' E 028°59'0 0.6
2017-Aug-04 08:55N 40°44' E 028°59'1 0.6
2017-Aug-04 07:03N 40°45' E 028°58'0 0.6
2017-Aug-04 06:22N 40°45' E 028°57'0 0.7
2017-Aug-04 05:50N 40°45' E 028°57'1 0.5
2017-Aug-04 02:52N 40°46' E 028°56'0 0.6
2017-Aug-04 02:23N 40°47' E 028°56'0 0.5
2017-Aug-04 01:58N 40°47' E 028°55'0 0.4
2017-Aug-04 01:13N 40°47' E 028°55'1 0.5
2017-Aug-04 00:11N 40°48' E 028°55'0 0.4
2017-Aug-03 23:24N 40°48' E 028°55'0 0.4
2017-Aug-03 22:41N 40°48' E 028°54'0 0.4
2017-Aug-03 22:23N 40°48' E 028°54'2 0.8
2017-Aug-03 20:34N 40°49' E 028°52'0 0.9
2017-Aug-03 20:29N 40°48' E 028°53'1 0.3
2017-Aug-03 18:35N 40°48' E 028°53'0 5.3
2017-Aug-03 18:30N 40°47' E 028°53'3 0.3
2017-Aug-03 09:42N 40°46' E 028°49'0 0.5
2017-Aug-03 09:29N 40°46' E 028°49'0 0.4
2017-Aug-03 08:58N 40°46' E 028°49'  
Track history (hours):
 
Tides and Currents Weather Stations Pressure Air Temp Water Temp Dewpoint Dewpoint Depression Visibility Wind Speed Wind Dir Waves Ship Positions

Cheyenne

Last reported at 2017-Aug-08 04:03 UTC. Time now 2017-Aug-23 21:29 UTC.
Position N 45°30' E 036°45'.
Warning: this ship's position is 15 days out of date.

Length 133 m; draft 2.8 m.

Type: Ship. MMSI: 249607000.

Date/timePositionNaut miles runAvg speedWind from/ knotsBaromVisibWave heightAir tempDewpointWater temp
2017-Aug-08 04:03N 45°30' E 036°45'0 8.1
2017-Aug-08 04:00N 45°30' E 036°44'4 7.8
2017-Aug-08 03:30N 45°26' E 036°42'4 8.2
2017-Aug-08 03:00N 45°22' E 036°40'3 6.5
2017-Aug-08 02:30N 45°20' E 036°37'4 7.2
2017-Aug-08 02:00N 45°19' E 036°32'3 6.7
2017-Aug-08 01:30N 45°17' E 036°29'2 4.4
2017-Aug-08 01:00N 45°14' E 036°30'1 0.3
2017-Aug-07 23:05N 45°14' E 036°30'0 0.0
2017-Aug-07 20:59N 45°14' E 036°30'0 0.0
2017-Aug-07 19:41N 45°14' E 036°30'0 0.0
2017-Aug-07 19:29N 45°14' E 036°30'0 0.0
2017-Aug-07 18:59N 45°14' E 036°30'0 0.0
2017-Aug-07 18:02N 45°14' E 036°30'0 0.1
2017-Aug-07 17:56N 45°14' E 036°30'0 0.0
2017-Aug-07 17:20N 45°14' E 036°30'0 0.0
2017-Aug-07 16:50N 45°14' E 036°30'0 0.0
2017-Aug-07 16:23N 45°14' E 036°30'0 0.0
2017-Aug-07 15:44N 45°14' E 036°30'0 0.0
2017-Aug-07 15:26N 45°14' E 036°30'0 0.0
2017-Aug-07 14:59N 45°14' E 036°30'0 0.0
2017-Aug-07 14:20N 45°14' E 036°30'0 0.1
2017-Aug-07 13:56N 45°14' E 036°30'0 0.2
2017-Aug-07 13:29N 45°14' E 036°30'2 4.3
2017-Aug-07 13:00N 45°12' E 036°29'4 7.8
2017-Aug-07 12:30N 45°08' E 036°30'23 7.9
2017-Aug-07 09:34N 44°45' E 036°25'1 8.6
2017-Aug-07 09:29N 44°45' E 036°25'397 7.9
2017-Aug-05 07:17N 40°59' E 028°60'2 5.4
2017-Aug-05 07:00N 40°57' E 028°60'3 5.3
2017-Aug-05 06:30N 40°55' E 028°60'3 6.0
2017-Aug-05 05:59N 40°52' E 029°02'3 6.9
2017-Aug-05 05:30N 40°49' E 029°04'2 3.2
2017-Aug-05 04:52N 40°48' E 029°06'0 0.5
2017-Aug-05 04:29N 40°48' E 029°05'0 0.4
2017-Aug-05 03:55N 40°47' E 029°05'0 0.5
2017-Aug-05 03:25N 40°47' E 029°05'0 0.5
2017-Aug-05 03:00N 40°47' E 029°05'0 0.6
2017-Aug-05 02:30N 40°47' E 029°04'0 0.6
2017-Aug-05 02:00N 40°47' E 029°04'0 0.6
2017-Aug-05 01:17N 40°47' E 029°04'0 0.5
2017-Aug-05 00:20N 40°46' E 029°03'0 0.5
2017-Aug-05 00:00N 40°46' E 029°03'0 0.5
2017-Aug-04 23:29N 40°46' E 029°03'0 0.4
2017-Aug-04 22:56N 40°46' E 029°03'0 0.3
2017-Aug-04 22:23N 40°46' E 029°03'0 0.3
2017-Aug-04 21:52N 40°46' E 029°02'0 0.3
2017-Aug-04 21:26N 40°46' E 029°02'0 0.3
2017-Aug-04 20:59N 40°45' E 029°02'1 0.3
2017-Aug-04 19:09N 40°45' E 029°01'0 0.3
2017-Aug-04 18:50N 40°45' E 029°01'0 0.9
2017-Aug-04 18:25N 40°46' E 029°02'0 0.3
2017-Aug-04 18:00N 40°45' E 029°02'1 1.2
2017-Aug-04 17:30N 40°45' E 029°02'3 5.0
2017-Aug-04 16:59N 40°42' E 029°03'0 0.1
2017-Aug-04 16:30N 40°42' E 029°03'0 0.3
2017-Aug-04 16:00N 40°42' E 029°03'0 0.3
2017-Aug-04 15:30N 40°43' E 029°03'0 0.3
2017-Aug-04 14:59N 40°43' E 029°03'0 0.5
2017-Aug-04 14:00N 40°43' E 029°03'0 0.5
2017-Aug-04 13:30N 40°43' E 029°03'0 0.6
2017-Aug-04 13:00N 40°44' E 029°03'0 0.7
2017-Aug-04 12:30N 40°44' E 029°02'0 0.7
2017-Aug-04 12:00N 40°44' E 029°02'0 0.7
2017-Aug-04 11:30N 40°44' E 029°01'0 0.7
2017-Aug-04 11:00N 40°44' E 029°01'0 0.7
2017-Aug-04 10:29N 40°44' E 029°00'1 0.6
2017-Aug-04 09:16N 40°44' E 028°59'0 0.6
2017-Aug-04 08:55N 40°44' E 028°59'1 0.6
2017-Aug-04 07:03N 40°45' E 028°58'0 0.6
2017-Aug-04 06:22N 40°45' E 028°57'0 0.7
2017-Aug-04 05:50N 40°45' E 028°57'1 0.5
2017-Aug-04 02:52N 40°46' E 028°56'0 0.6
2017-Aug-04 02:23N 40°47' E 028°56'0 0.5
2017-Aug-04 01:58N 40°47' E 028°55'0 0.4
2017-Aug-04 01:13N 40°47' E 028°55'1 0.5
2017-Aug-04 00:11N 40°48' E 028°55'0 0.4
2017-Aug-03 23:24N 40°48' E 028°55'0 0.4
2017-Aug-03 22:41N 40°48' E 028°54'0 0.4
2017-Aug-03 22:23N 40°48' E 028°54'2 0.8
2017-Aug-03 20:34N 40°49' E 028°52'0 0.9
2017-Aug-03 20:29N 40°48' E 028°53'1 0.3
2017-Aug-03 18:35N 40°48' E 028°53'0 5.3
2017-Aug-03 18:30N 40°47' E 028°53'3 0.3
2017-Aug-03 09:42N 40°46' E 028°49'0 0.5
2017-Aug-03 09:29N 40°46' E 028°49'0 0.4
2017-Aug-03 08:58N 40°46' E 028°49'  

Dump ship's entire track history